Time,TemperatureF,DewpointF,PressureIn,WindDirection,WindDirectionDegrees,WindSpeedMPH,WindSpeedGustMPH,Humidity,HourlyPrecipIn,Conditions,Clouds,dailyrainin,SolarRadiationWatts/m^2,SoftwareType,DateUTC
2013-02-01 00:02:00,38.0,25.0,-100.00,WSW,239,11.0,24.0,58,0.00,,,0.00,0.000000,,2013-02-01 06:02:00,
2013-02-01 00:32:00,39.0,25.0,-100.00,WNW,285,14.0,28.0,58,0.00,,,0.00,0.000000,,2013-02-01 06:32:00,
2013-02-01 00:42:00,39.0,25.0,-100.00,WNW,285,14.0,28.0,58,0.00,,,0.00,0.000000,,2013-02-01 06:42:00,
2013-02-01 00:52:00,39.0,25.0,-100.00,WNW,285,14.0,28.0,58,0.00,,,0.00,0.000000,,2013-02-01 06:52:00,
2013-02-01 01:02:00,39.0,25.0,-100.00,WNW,285,14.0,28.0,58,0.00,,,0.00,0.000000,,2013-02-01 07:02:00,
2013-02-01 01:32:00,37.0,26.0,-100.00,NW,320,10.0,26.0,64,0.00,,,0.00,0.000000,,2013-02-01 07:32:00,
2013-02-01 01:42:00,37.0,26.0,-100.00,NW,320,10.0,26.0,64,0.00,,,0.00,0.000000,,2013-02-01 07:42:00,
2013-02-01 01:52:00,37.0,26.0,-100.00,NW,320,10.0,26.0,64,0.00,,,0.00,0.000000,,2013-02-01 07:52:00,
2013-02-01 02:01:00,37.0,26.0,-100.00,NW,320,10.0,26.0,64,0.00,,,0.00,0.000000,,2013-02-01 08:01:00,
2013-02-01 02:32:00,31.0,27.0,-100.00,WNW,294,11.0,25.0,85,0.00,,,0.00,0.000000,,2013-02-01 08:32:00,
2013-02-01 02:42:00,31.0,27.0,-100.00,WNW,294,11.0,25.0,85,0.00,,,0.00,0.000000,,2013-02-01 08:42:00,
2013-02-01 02:52:00,31.0,27.0,-100.00,WNW,294,11.0,25.0,85,0.00,,,0.00,0.000000,,2013-02-01 08:52:00,
2013-02-01 03:02:00,31.0,27.0,-100.00,WNW,294,11.0,25.0,85,0.00,,,0.00,0.000000,,2013-02-01 09:02:00,
2013-02-01 03:32:00,29.0,25.0,-100.00,NNW,331,10.0,20.0,83,0.00,,,0.00,0.000000,,2013-02-01 09:32:00,
2013-02-01 03:42:00,29.0,25.0,-100.00,NNW,331,10.0,20.0,83,0.00,,,0.00,0.000000,,2013-02-01 09:42:00,
2013-02-01 03:52:00,29.0,25.0,-100.00,NNW,331,10.0,20.0,83,0.00,,,0.00,0.000000,,2013-02-01 09:52:00,
2013-02-01 04:01:00,29.0,25.0,-100.00,NNW,331,10.0,20.0,83,0.00,,,0.00,0.000000,,2013-02-01 10:01:00,
2013-02-01 04:32:00,25.0,17.0,-100.00,NNW,336,11.0,23.0,72,0.00,,,0.00,0.000000,,2013-02-01 10:32:00,
2013-02-01 04:43:00,25.0,17.0,-100.00,NNW,336,11.0,23.0,72,0.00,,,0.00,0.000000,,2013-02-01 10:43:00,
2013-02-01 04:53:00,25.0,17.0,-100.00,NNW,336,11.0,23.0,72,0.00,,,0.00,0.000000,,2013-02-01 10:53:00,
2013-02-01 05:02:00,25.0,17.0,-100.00,NNW,336,11.0,23.0,72,0.00,,,0.00,0.000000,,2013-02-01 11:02:00,
2013-02-01 05:32:00,22.0,12.0,-100.00,NNW,334,11.0,23.0,64,0.00,,,0.00,0.000000,,2013-02-01 11:32:00,
2013-02-01 05:42:00,22.0,12.0,-100.00,NNW,334,11.0,23.0,64,0.00,,,0.00,0.000000,,2013-02-01 11:42:00,
2013-02-01 05:53:00,22.0,12.0,-100.00,NNW,334,11.0,23.0,64,0.00,,,0.00,0.000000,,2013-02-01 11:53:00,
2013-02-01 06:03:00,22.0,12.0,-100.00,NNW,334,11.0,23.0,64,0.00,,,0.00,0.000000,,2013-02-01 12:03:00,
2013-02-01 06:32:00,19.0,11.0,-100.00,NW,324,8.0,19.0,72,0.00,,,0.00,0.000000,,2013-02-01 12:32:00,
2013-02-01 06:42:00,19.0,11.0,-100.00,NW,324,8.0,19.0,72,0.00,,,0.00,0.000000,,2013-02-01 12:42:00,
2013-02-01 06:52:00,19.0,11.0,-100.00,NW,324,8.0,19.0,72,0.00,,,0.00,0.000000,,2013-02-01 12:52:00,
2013-02-01 07:02:00,19.0,11.0,-100.00,NW,324,8.0,19.0,72,0.00,,,0.00,0.000000,,2013-02-01 13:02:00,
2013-02-01 07:33:00,17.0,9.0,-100.00,NNW,334,7.0,22.0,69,0.00,,,0.00,4.000000,,2013-02-01 13:33:00,
2013-02-01 07:43:00,17.0,9.0,-100.00,NNW,334,7.0,22.0,69,0.00,,,0.00,4.000000,,2013-02-01 13:43:00,
2013-02-01 07:53:00,17.0,9.0,-100.00,NNW,334,7.0,22.0,69,0.00,,,0.00,4.000000,,2013-02-01 13:53:00,
2013-02-01 08:03:00,17.0,9.0,-100.00,NNW,334,7.0,22.0,69,0.00,,,0.00,4.000000,,2013-02-01 14:03:00,
2013-02-01 08:32:00,19.0,10.0,-100.00,North,349,5.0,15.0,68,0.00,,,0.00,90.000000,,2013-02-01 14:32:00,
2013-02-01 08:42:00,19.0,10.0,-100.00,North,349,5.0,15.0,68,0.00,,,0.00,90.000000,,2013-02-01 14:42:00,
2013-02-01 08:53:00,19.0,10.0,-100.00,North,349,5.0,15.0,68,0.00,,,0.00,90.000000,,2013-02-01 14:53:00,
2013-02-01 09:03:00,19.0,10.0,-100.00,North,349,5.0,15.0,68,0.00,,,0.00,90.000000,,2013-02-01 15:03:00,
2013-02-01 09:33:00,21.0,9.0,-100.00,North,349,8.0,15.0,58,0.00,,,0.00,340.000000,,2013-02-01 15:33:00,
2013-02-01 09:42:00,21.0,9.0,-100.00,North,349,8.0,15.0,58,0.00,,,0.00,340.000000,,2013-02-01 15:42:00,
2013-02-01 09:52:00,21.0,9.0,-100.00,North,349,8.0,15.0,58,0.00,,,0.00,340.000000,,2013-02-01 15:52:00,
2013-02-01 10:03:00,21.0,9.0,-100.00,North,349,8.0,15.0,58,0.00,,,0.00,340.000000,,2013-02-01 16:03:00,
2013-02-01 10:33:00,23.0,8.0,-100.00,NNW,347,6.0,14.0,53,0.00,,,0.00,493.000000,,2013-02-01 16:33:00,
2013-02-01 10:43:00,23.0,8.0,-100.00,NNW,347,6.0,14.0,53,0.00,,,0.00,493.000000,,2013-02-01 16:43:00,
2013-02-01 10:53:00,23.0,8.0,-100.00,NNW,347,6.0,14.0,53,0.00,,,0.00,493.000000,,2013-02-01 16:53:00,
2013-02-01 11:03:00,23.0,8.0,-100.00,NNW,347,6.0,14.0,53,0.00,,,0.00,493.000000,,2013-02-01 17:03:00,
2013-02-01 11:32:00,26.0,8.0,-100.00,NW,311,5.0,15.0,46,0.00,,,0.00,598.000000,,2013-02-01 17:32:00,
2013-02-01 11:42:00,26.0,8.0,-100.00,NW,311,5.0,15.0,46,0.00,,,0.00,598.000000,,2013-02-01 17:42:00,
2013-02-01 11:53:00,26.0,8.0,-100.00,NW,311,5.0,15.0,46,0.00,,,0.00,598.000000,,2013-02-01 17:53:00,
2013-02-01 12:03:00,26.0,8.0,-100.00,NW,311,5.0,15.0,46,0.00,,,0.00,598.000000,,2013-02-01 18:03:00,
2013-02-01 12:33:00,29.0,8.0,-100.00,NW,322,4.0,11.0,41,0.00,,,0.00,645.000000,,2013-02-01 18:33:00,
2013-02-01 12:42:00,29.0,8.0,-100.00,NW,322,4.0,11.0,41,0.00,,,0.00,645.000000,,2013-02-01 18:42:00,
2013-02-01 12:53:00,29.0,8.0,-100.00,NW,322,4.0,11.0,41,0.00,,,0.00,645.000000,,2013-02-01 18:53:00,
2013-02-01 13:03:00,29.0,8.0,-100.00,NW,322,4.0,11.0,41,0.00,,,0.00,645.000000,,2013-02-01 19:03:00,
2013-02-01 13:33:00,31.0,9.0,-100.00,NNW,336,5.0,11.0,39,0.00,,,0.00,629.000000,,2013-02-01 19:33:00,
2013-02-01 13:42:00,31.0,9.0,-100.00,NNW,336,5.0,11.0,39,0.00,,,0.00,629.000000,,2013-02-01 19:42:00,
2013-02-01 13:52:00,31.0,9.0,-100.00,NNW,336,5.0,11.0,39,0.00,,,0.00,629.000000,,2013-02-01 19:52:00,
2013-02-01 14:02:00,31.0,9.0,-100.00,NNW,336,5.0,11.0,39,0.00,,,0.00,629.000000,,2013-02-01 20:02:00,
2013-02-01 14:32:00,32.0,7.0,-100.00,NW,319,4.0,14.0,34,0.00,,,-99.99,556.000000,,2013-02-01 20:32:00,
2013-02-01 14:42:00,32.0,7.0,-100.00,NW,319,4.0,14.0,34,0.00,,,-99.99,556.000000,,2013-02-01 20:42:00,
2013-02-01 14:52:00,32.0,7.0,-100.00,NW,319,4.0,14.0,34,0.00,,,-99.99,556.000000,,2013-02-01 20:52:00,
2013-02-01 15:02:00,32.0,7.0,-100.00,NW,319,4.0,14.0,34,0.00,,,-99.99,556.000000,,2013-02-01 21:02:00,
2013-02-01 15:32:00,32.0,4.0,-100.00,NW,322,4.0,15.0,30,0.00,,,0.00,387.000000,,2013-02-01 21:32:00,
2013-02-01 15:42:00,32.0,4.0,-100.00,NW,322,4.0,15.0,30,0.00,,,0.00,387.000000,,2013-02-01 21:42:00,
2013-02-01 15:53:00,32.0,4.0,-100.00,NW,322,4.0,15.0,30,0.00,,,0.00,387.000000,,2013-02-01 21:53:00,
2013-02-01 16:03:00,32.0,4.0,-100.00,NW,322,4.0,15.0,30,0.00,,,0.00,387.000000,,2013-02-01 22:03:00,
2013-02-01 16:32:00,30.0,3.0,-100.00,NW,317,5.0,11.0,31,0.00,,,0.00,178.000000,,2013-02-01 22:32:00,
2013-02-01 16:42:00,30.0,3.0,-100.00,NW,317,5.0,11.0,31,0.00,,,0.00,178.000000,,2013-02-01 22:42:00,
2013-02-01 16:52:00,30.0,3.0,-100.00,NW,317,5.0,11.0,31,0.00,,,0.00,178.000000,,2013-02-01 22:52:00,
2013-02-01 17:02:00,30.0,3.0,-100.00,NW,317,5.0,11.0,31,0.00,,,0.00,178.000000,,2013-02-01 23:02:00,
2013-02-01 17:32:00,27.0,5.0,-100.00,WNW,302,5.0,13.0,39,0.00,,,0.00,19.000000,,2013-02-01 23:32:00,
2013-02-01 17:42:00,27.0,5.0,-100.00,WNW,302,5.0,13.0,39,0.00,,,0.00,19.000000,,2013-02-01 23:42:00,
2013-02-01 17:52:00,27.0,5.0,-100.00,WNW,302,5.0,13.0,39,0.00,,,0.00,19.000000,,2013-02-01 23:52:00,
2013-02-01 18:02:00,27.0,5.0,-100.00,WNW,302,5.0,13.0,39,0.00,,,0.00,19.000000,,2013-02-02 00:02:00,
2013-02-01 18:32:00,24.0,6.0,-100.00,NNW,337,2.0,9.0,46,0.00,,,0.00,1.000000,,2013-02-02 00:32:00,
2013-02-01 18:42:00,24.0,6.0,-100.00,NNW,337,2.0,9.0,46,0.00,,,0.00,1.000000,,2013-02-02 00:42:00,
2013-02-01 18:52:00,24.0,6.0,-100.00,NNW,337,2.0,9.0,46,0.00,,,0.00,1.000000,,2013-02-02 00:52:00,
2013-02-01 19:02:00,24.0,6.0,-100.00,NNW,337,2.0,9.0,46,0.00,,,0.00,1.000000,,2013-02-02 01:02:00,
2013-02-01 19:32:00,24.0,8.0,-100.00,NW,317,1.0,6.0,49,0.00,,,0.00,0.000000,,2013-02-02 01:32:00,
2013-02-01 19:42:00,24.0,8.0,-100.00,NW,317,1.0,6.0,49,0.00,,,0.00,0.000000,,2013-02-02 01:42:00,
2013-02-01 19:52:00,24.0,8.0,-100.00,NW,317,1.0,6.0,49,0.00,,,0.00,0.000000,,2013-02-02 01:52:00,
2013-02-01 20:01:00,24.0,8.0,-100.00,NW,317,1.0,6.0,49,0.00,,,0.00,0.000000,,2013-02-02 02:01:00,
2013-02-01 20:32:00,22.0,11.0,-100.00,NNW,341,0.0,5.0,62,0.00,,,0.00,0.000000,,2013-02-02 02:32:00,
2013-02-01 20:42:00,22.0,11.0,-100.00,NNW,341,0.0,5.0,62,0.00,,,0.00,0.000000,,2013-02-02 02:42:00,
2013-02-01 20:52:00,22.0,11.0,-100.00,NNW,341,0.0,5.0,62,0.00,,,0.00,0.000000,,2013-02-02 02:52:00,
2013-02-01 21:02:00,22.0,11.0,-100.00,NNW,341,0.0,5.0,62,0.00,,,0.00,0.000000,,2013-02-02 03:02:00,
2013-02-01 21:32:00,22.0,9.0,-100.00,NW,322,3.0,9.0,57,0.00,,,0.00,0.000000,,2013-02-02 03:32:00,
2013-02-01 21:42:00,22.0,9.0,-100.00,NW,322,3.0,9.0,57,0.00,,,0.00,0.000000,,2013-02-02 03:42:00,
2013-02-01 21:52:00,22.0,9.0,-100.00,NW,322,3.0,9.0,57,0.00,,,0.00,0.000000,,2013-02-02 03:52:00,
2013-02-01 22:02:00,22.0,9.0,-100.00,NW,322,3.0,9.0,57,0.00,,,0.00,0.000000,,2013-02-02 04:02:00,
2013-02-01 22:33:00,23.0,6.0,-100.00,SW,231,0.0,7.0,48,0.00,,,0.00,0.000000,,2013-02-02 04:33:00,
2013-02-01 22:42:00,23.0,6.0,-100.00,SW,231,0.0,7.0,48,0.00,,,0.00,0.000000,,2013-02-02 04:42:00,
2013-02-01 22:52:00,23.0,6.0,-100.00,SW,231,0.0,7.0,48,0.00,,,0.00,0.000000,,2013-02-02 04:52:00,
2013-02-01 23:03:00,23.0,6.0,-100.00,SW,231,0.0,7.0,48,0.00,,,0.00,0.000000,,2013-02-02 05:03:00,
2013-02-01 23:33:00,22.0,8.0,-100.00,SE,124,0.0,0.0,54,0.00,,,0.00,0.000000,,2013-02-02 05:33:00,
2013-02-01 23:42:00,22.0,8.0,-100.00,SE,124,0.0,0.0,54,0.00,,,0.00,0.000000,,2013-02-02 05:42:00,
2013-02-01 23:52:00,22.0,8.0,-100.00,SE,124,0.0,0.0,54,0.00,,,0.00,0.000000,,2013-02-02 05:52:00,